메인 페이지
METAR-TAF:

METAR-TAF

공항 :

라 아우로라 국제공항

과테말라, 과테말라

위도: 14-35N, 경도: 090-31W, 고도: 1489m

현재 날씨관측

예보는 36분 전, 18:00시(UTC)에 발표되었습니다.
4kt
온도 25°C
습도 57%
기압 1025 hPa
시정 10km 이상
고도 2000ft 상공 구름 보통, 타워링 적운.
고도 20000ft 상공 구름 보통

METAR: MGGT 221800Z 18004KT 9999 SCT020TCU SCT200 25/16 Q1025 A3027 TCU E

시각: 12:36 (18:36 UTC)

예보

예보는 7 시간 36분 전, 11:00시(UTC)에 발표되었습니다.
예보 대상 시간: 22일 12시부터 23일 12시까지 (UTC)
8kt
시정 10km 이상
고도 1200ft 상공 구름 보통
고도 8000ft 상공 구름 많음
전환 중
22일 15시부터 22일 17시까지 (UTC)
8kt
고도 1800ft 상공 구름 보통
확률 30% :
일시적
22일 20시부터 23일 06시까지 (UTC)
시정: 8000m
고도 2500ft 상공 구름 조금, 적란운.
뇌우, 비
전환 중
23일 00시부터 23일 02시까지 (UTC)
여러 방향의 바람 3kt
고도 1600ft 상공 구름 보통
일시적
23일 08시부터 23일 12시까지 (UTC)
시정: 8000m
고도 1600ft 상공 구름 많음
비, 이슬비

TAF: MGGT 221100Z 2212/2312 18008KT 9999 SCT012 BKN080 TX25/2220Z TN17/2212Z BECMG 2215/2217 18008KT SCT018 PROB30 TEMPO 2220/2306 8000 TSRA FEW025CB BECMG 2300/2302 VRB03KT SCT016 TEMPO 2308/2312 8000 RADZ BKN016

4,000개 이상의 공항 관측 자료 및 예보 (METAR 및 TAF 보고).

지도상에서 검색 가능한 기상관측소가 노란 점과 빨간 점으로 표시되어 있습니다.

기상관측소 명을 보려면 표시 위로 마우스를 이동하세요.

날씨 관측과 예보를 보려면 클릭하세요.

지도 변경 : 확대하려면 엑스 표시가 있는 녹색 버튼, 축소하려면 빼기 표시가 있는 녹색 버튼, 다음 페이지의 지도를 보려면 녹색 화살표를 클릭하세요.


METAR-TAF: